Time;durP1;ratioP1;P1;durP2;ratioP2;P2;SDS_P1;SDS_P2;PMS_P1;PMS_P2;Temp;Humidity;BMP_temperature;BMP_pressure;BME280_temperature;BME280_humidity;BME280_pressure;Samples;Min_cycle;Max_cycle;Signal;HPM_P1;HPM_P2
2023/04/19 04:32:07;;;;;;;;;19.50;19.50;;;;;13.03;58.06;101506.22;5113123;27;46675;-84
2023/04/19 04:34:34;;;;;;;;;19.25;19.25;;;;;13.38;58.56;101571.16;5097426;27;45543;-83
2023/04/19 04:37:00;;;;;;;;;23.75;19.00;;;;;13.27;58.47;101556.34;5097810;27;45535;-83
2023/04/19 04:39:25;;;;;;;;;18.50;17.25;;;;;13.00;58.36;101527.91;5078645;27;45248;-84
2023/04/19 04:41:56;;;;;;;;;21.75;18.75;;;;;13.31;58.32;101575.06;5086702;27;45878;-83
2023/04/19 04:44:22;;;;;;;;;17.75;16.00;;;;;13.25;58.79;101570.81;5102431;27;45322;-82
2023/04/19 04:46:47;;;;;;;;;23.25;18.50;;;;;13.03;58.62;101535.84;5097300;27;45212;-83
2023/04/19 04:49:12;;;;;;;;;25.50;22.50;;;;;13.27;58.74;101579.69;5096325;27;45228;-78
2023/04/19 04:51:38;;;;;;;;;19.50;17.50;;;;;13.29;58.63;101588.59;5100851;27;45394;-84
2023/04/19 04:54:04;;;;;;;;;19.50;16.25;;;;;13.14;58.69;101562.34;5084621;27;46211;-78
2023/04/19 04:56:29;;;;;;;;;18.00;17.25;;;;;13.33;58.47;101592.03;5116987;27;45436;-76
2023/04/19 04:58:55;;;;;;;;;11.50;11.50;;;;;13.33;58.65;101582.13;5084241;27;45462;-76
2023/04/19 05:01:22;;;;;;;;;20.75;20.75;;;;;13.35;58.25;101587.47;5116917;27;45377;-76
2023/04/19 05:03:48;;;;;;;;;19.00;19.00;;;;;13.38;58.63;101576.53;5116494;27;45513;-79
2023/04/19 05:06:14;;;;;;;;;19.00;15.50;;;;;13.41;57.93;101582.66;5116947;27;45470;-76
2023/04/19 05:08:39;;;;;;;;;19.50;19.50;;;;;13.39;58.74;101591.75;5116154;27;45264;-74
2023/04/19 05:11:04;;;;;;;;;17.00;17.00;;;;;13.36;58.07;101578.41;5116787;27;45546;-74
2023/04/19 05:13:30;;;;;;;;;17.25;17.25;;;;;13.41;58.07;101582.66;5116086;27;45274;-74
2023/04/19 05:15:55;;;;;;;;;22.50;20.00;;;;;13.50;57.83;101589.47;5116334;27;46105;-74
2023/04/19 05:18:20;;;;;;;;;23.25;22.25;;;;;13.49;58.45;101593.09;5116086;27;46257;-74
2023/04/19 05:20:46;;;;;;;;;20.50;17.00;;;;;13.37;58.29;101577.47;5116655;27;45206;-74
2023/04/19 05:23:11;;;;;;;;;20.00;18.25;;;;;13.44;58.41;101598.69;5116189;27;45566;-76
2023/04/19 05:25:36;;;;;;;;;24.00;18.50;;;;;13.42;58.24;101597.91;5098057;27;46111;-76
2023/04/19 05:28:02;;;;;;;;;18.50;18.00;;;;;13.36;58.38;101587.38;5115995;27;45197;-77
2023/04/19 05:30:28;;;;;;;;;17.75;17.00;;;;;13.40;58.44;101596.19;5117134;27;45290;-79
2023/04/19 05:32:53;;;;;;;;;20.00;18.00;;;;;13.40;58.31;101598.91;5116164;27;45602;-79
2023/04/19 05:35:19;;;;;;;;;20.00;17.75;;;;;13.43;58.03;101588.00;5096988;27;45210;-80
2023/04/19 05:37:45;;;;;;;;;21.00;18.00;;;;;13.45;58.20;101604.94;5091382;27;45379;-78
2023/04/19 05:40:10;;;;;;;;;18.25;18.25;;;;;13.47;57.95;101597.69;5096495;27;45409;-77
2023/04/19 05:42:37;;;;;;;;;17.00;17.00;;;;;13.45;58.47;101602.25;5096468;27;45520;-78
2023/04/19 05:45:03;;;;;;;;;20.75;20.50;;;;;13.31;58.08;101599.28;5095842;27;45520;-75
2023/04/19 05:47:28;;;;;;;;;25.00;24.50;;;;;13.38;57.97;101606.16;5095284;27;45328;-74
2023/04/19 05:49:54;;;;;;;;;23.75;18.25;;;;;13.30;57.86;101602.94;5095415;27;45350;-76
2023/04/19 05:52:19;;;;;;;;;23.25;21.50;;;;;13.37;58.20;101610.66;5104832;27;45472;-74
2023/04/19 05:54:44;;;;;;;;;17.50;17.50;;;;;13.31;58.34;101604.69;5076916;27;45318;-75
2023/04/19 05:57:10;;;;;;;;;19.75;19.75;;;;;13.31;57.98;101607.38;5093740;27;45506;-74
2023/04/19 05:59:35;;;;;;;;;21.50;21.50;;;;;13.37;58.04;101621.44;5093853;27;45437;-75
2023/04/19 06:02:00;;;;;;;;;23.00;21.50;;;;;13.38;58.11;101614.25;5093528;27;45636;-75
2023/04/19 06:04:26;;;;;;;;;22.00;21.00;;;;;13.31;58.04;101610.06;5094724;27;46431;-74
2023/04/19 06:06:52;;;;;;;;;28.50;28.50;;;;;13.38;58.17;101619.63;5095051;27;45252;-71
2023/04/19 06:09:17;;;;;;;;;21.00;20.00;;;;;13.38;58.20;101617.81;5095287;27;45327;-74
2023/04/19 06:11:43;;;;;;;;;25.00;23.25;;;;;13.39;57.87;101630.34;5094744;27;45641;-73
2023/04/19 06:14:10;;;;;;;;;25.00;21.50;;;;;13.37;58.33;101623.25;5094699;27;45974;-74
2023/04/19 06:16:35;;;;;;;;;23.75;19.75;;;;;13.39;58.32;101629.47;5106492;27;45422;-74
2023/04/19 06:19:00;;;;;;;;;21.25;20.25;;;;;13.40;58.34;101631.22;5115798;27;45356;-74
2023/04/19 06:21:28;;;;;;;;;28.75;23.75;;;;;13.41;58.01;101638.34;5115427;27;47898;-74
2023/04/19 06:23:53;;;;;;;;;20.75;20.75;;;;;13.41;58.02;101625.78;5115546;27;46441;-74
2023/04/19 06:26:20;;;;;;;;;29.25;22.50;;;;;13.40;58.50;101624.00;5115059;27;48921;-75
2023/04/19 06:28:45;;;;;;;;;20.75;20.75;;;;;13.41;58.24;101633.84;5115756;27;45326;-73
2023/04/19 06:31:11;;;;;;;;;27.00;23.25;;;;;13.42;58.18;101637.41;5115435;27;45515;-75
2023/04/19 06:33:36;;;;;;;;;21.50;21.50;;;;;13.36;58.38;101614.31;5115428;27;45202;-75
2023/04/19 06:36:02;;;;;;;;;24.00;18.75;;;;;13.39;58.27;101616.00;5115218;27;45211;-75
2023/04/19 06:38:28;;;;;;;;;24.50;23.25;;;;;13.53;58.26;101640.50;5117895;27;45187;-74
2023/04/19 06:40:53;;;;;;;;;21.25;21.00;;;;;13.56;57.92;101643.06;5118854;27;45573;-74
2023/04/19 06:43:20;;;;;;;;;28.00;23.00;;;;;13.55;57.68;101638.63;5118442;27;45996;-74
2023/04/19 06:45:45;;;;;;;;;18.75;17.00;;;;;13.57;57.96;101643.00;5118824;27;45347;-73
2023/04/19 06:48:11;;;;;;;;;25.50;23.00;;;;;13.53;58.05;101635.09;5119167;27;45390;-73
2023/04/19 06:50:36;;;;;;;;;24.00;21.75;;;;;13.57;57.92;101644.81;5118721;27;45543;-75
2023/04/19 06:53:01;;;;;;;;;24.50;21.25;;;;;13.59;57.78;101641.13;5111139;27;46138;-75
2023/04/19 06:55:27;;;;;;;;;17.25;17.25;;;;;13.63;57.48;101648.13;5098051;27;46973;-75
2023/04/19 06:57:52;;;;;;;;;23.75;22.50;;;;;13.56;57.76;101641.25;5098062;27;45446;-74
2023/04/19 07:00:17;;;;;;;;;21.00;20.75;;;;;13.57;58.02;101634.06;5097838;27;45475;-76
2023/04/19 07:02:43;;;;;;;;;25.25;20.75;;;;;13.59;57.76;101643.81;5086795;27;47131;-73
2023/04/19 07:05:08;;;;;;;;;23.50;21.75;;;;;13.53;57.91;101627.91;5104631;27;45252;-74
2023/04/19 07:07:36;;;;;;;;;25.25;23.25;;;;;13.70;57.98;101642.44;5098302;27;45373;-74
2023/04/19 07:10:02;;;;;;;;;25.00;24.75;;;;;13.73;57.54;101653.97;5079419;27;46057;-74
2023/04/19 07:12:27;;;;;;;;;26.00;20.25;;;;;13.70;57.53;101646.03;5097747;27;46173;-73
2023/04/19 07:14:55;;;;;;;;;24.75;23.50;;;;;13.70;57.59;101645.16;5092868;27;51866;-74
2023/04/19 07:17:21;;;;;;;;;19.25;17.75;;;;;13.61;57.57;101630.25;5115794;27;45355;-74
2023/04/19 07:19:48;;;;;;;;;24.50;22.75;;;;;13.68;57.93;101638.97;5118252;27;45365;-74
2023/04/19 07:22:13;;;;;;;;;21.75;20.50;;;;;13.74;57.90;101641.38;5118514;27;46146;-75
2023/04/19 07:24:40;;;;;;;;;25.00;23.50;;;;;13.76;57.47;101642.19;5118381;27;45412;-74
2023/04/19 07:27:06;;;;;;;;;27.00;24.50;;;;;13.71;57.53;101631.59;5118053;27;45386;-74
2023/04/19 07:29:33;;;;;;;;;28.75;20.75;;;;;13.79;57.79;101648.31;5118128;27;45326;-75
2023/04/19 07:32:00;;;;;;;;;23.25;23.25;;;;;13.79;57.65;101642.03;5099649;27;46075;-75
2023/04/19 07:34:26;;;;;;;;;28.25;22.75;;;;;13.67;57.64;101631.81;5117960;27;45391;-75
2023/04/19 07:36:51;;;;;;;;;20.50;20.50;;;;;13.80;57.78;101655.44;5118853;27;45376;-75
2023/04/19 07:39:17;;;;;;;;;21.50;21.25;;;;;13.87;57.82;101650.66;5117888;27;45552;-73
2023/04/19 07:41:43;;;;;;;;;24.00;22.00;;;;;13.90;57.52;101658.63;5117880;27;46722;-75
2023/04/19 07:44:10;;;;;;;;;25.25;23.25;;;;;13.88;57.74;101641.63;5117850;27;45464;-76
2023/04/19 07:46:35;;;;;;;;;26.75;23.50;;;;;13.94;57.45;101652.16;5118118;27;45550;-75
2023/04/19 07:49:01;;;;;;;;;23.25;22.00;;;;;14.06;57.64;101661.47;5116473;27;45515;-74
2023/04/19 07:51:26;;;;;;;;;23.25;20.75;;;;;13.92;57.91;101629.78;5095140;27;46397;-74
2023/04/19 07:53:52;;;;;;;;;29.25;23.75;;;;;14.14;57.32;101653.91;5104342;27;45532;-73
2023/04/19 07:56:18;;;;;;;;;29.25;25.50;;;;;14.17;57.40;101651.97;5097557;27;45745;-75
2023/04/19 07:58:44;;;;;;;;;23.00;22.75;;;;;14.22;57.10;101646.34;5097536;27;45519;-73
2023/04/19 08:01:10;;;;;;;;;24.75;22.25;;;;;14.29;57.12;101656.78;5097349;27;45463;-75
2023/04/19 08:03:36;;;;;;;;;27.00;25.00;;;;;14.17;57.14;101616.03;5097226;27;45330;-75
2023/04/19 08:06:04;;;;;;;;;29.50;23.50;;;;;14.38;57.05;101650.97;5099460;27;45356;-75
2023/04/19 08:08:30;;;;;;;;;22.75;22.50;;;;;14.45;56.76;101648.03;5103813;27;45530;-74
2023/04/19 08:10:55;;;;;;;;;24.00;24.00;;;;;14.46;56.51;101650.63;5097367;27;45443;-74
2023/04/19 08:13:21;;;;;;;;;24.50;19.50;;;;;14.45;56.54;101648.91;5096767;27;45325;-74
2023/04/19 08:15:46;;;;;;;;;25.25;25.25;;;;;14.49;56.97;101649.59;5101975;27;45215;-75
2023/04/19 08:18:12;;;;;;;;;25.50;25.00;;;;;14.59;56.57;101650.91;5117511;27;45341;-73
2023/04/19 08:20:37;;;;;;;;;21.50;19.50;;;;;14.57;56.76;101636.63;5117384;27;50957;-73
2023/04/19 08:23:05;;;;;;;;;23.25;23.25;;;;;14.65;56.25;101646.09;5117522;27;45360;-75
2023/04/19 08:25:30;;;;;;;;;26.50;22.50;;;;;14.71;56.47;101648.53;5117672;27;45415;-74
2023/04/19 08:27:57;;;;;;;;;29.00;26.75;;;;;14.75;56.07;101643.81;5117215;27;45946;-73
2023/04/19 08:30:22;;;;;;;;;21.75;21.75;;;;;14.74;56.15;101631.28;5117388;27;46124;-73
2023/04/19 08:32:48;;;;;;;;;26.50;22.00;;;;;14.81;56.15;101630.03;5116975;27;45388;-74
2023/04/19 08:35:13;;;;;;;;;23.75;23.75;;;;;14.91;55.95;101636.72;5117187;27;45588;-74
2023/04/19 08:37:38;;;;;;;;;24.50;23.75;;;;;14.92;55.94;101635.78;5117191;27;46146;-73
2023/04/19 08:40:04;;;;;;;;;25.50;22.00;;;;;15.00;55.81;101643.50;5116880;27;46038;-76
2023/04/19 08:42:30;;;;;;;;;22.50;21.00;;;;;15.05;55.44;101636.06;5117421;27;45495;-74
2023/04/19 08:44:57;;;;;;;;;25.25;23.00;;;;;15.09;55.65;101645.72;5116993;27;45425;-75
2023/04/19 08:47:24;;;;;;;;;31.50;25.00;;;;;15.14;55.36;101644.53;5116919;27;45459;-74
2023/04/19 08:49:50;;;;;;;;;27.50;26.25;;;;;15.11;55.32;101624.94;5116612;27;45262;-74
2023/04/19 08:52:17;;;;;;;;;23.75;21.25;;;;;15.24;55.52;101647.66;5116669;27;45885;-74
2023/04/19 08:54:43;;;;;;;;;22.00;22.00;;;;;15.31;55.22;101637.44;5095357;27;45379;-74
2023/04/19 08:57:08;;;;;;;;;25.25;25.25;;;;;15.32;55.31;101625.63;5109493;27;45351;-74
2023/04/19 08:59:34;;;;;;;;;24.00;21.75;;;;;15.38;55.14;101639.72;5116609;27;46040;-73
2023/04/19 09:02:00;;;;;;;;;23.25;23.25;;;;;15.46;55.47;101639.34;5116510;27;45367;-73
2023/04/19 09:04:25;;;;;;;;;20.00;20.00;;;;;15.46;54.76;101632.09;5116582;27;45333;-72
2023/04/19 09:06:51;;;;;;;;;24.25;21.00;;;;;15.55;54.55;101636.19;5116718;27;45566;-75
2023/04/19 09:09:19;;;;;;;;;24.00;22.25;;;;;15.61;54.45;101635.84;5116269;27;46471;-74
2023/04/19 09:11:45;;;;;;;;;24.75;22.50;;;;;15.62;54.35;101634.03;5097760;27;45394;-75
2023/04/19 09:14:13;;;;;;;;;21.75;21.50;;;;;15.59;54.39;101629.66;5116551;27;45437;-74
2023/04/19 09:16:38;;;;;;;;;22.75;21.00;;;;;15.73;54.10;101637.06;5116229;27;45546;-74
2023/04/19 09:19:04;;;;;;;;;26.00;25.00;;;;;15.68;54.20;101621.06;5116241;27;45380;-73
2023/04/19 09:21:32;;;;;;;;;21.25;19.25;;;;;15.76;53.94;101634.16;5116246;27;45511;-74
2023/04/19 09:23:59;;;;;;;;;24.50;22.25;;;;;15.74;53.91;101626.13;5116569;27;45304;-74
2023/04/19 09:26:28;;;;;;;;;24.50;23.25;;;;;15.85;53.75;101639.06;5097760;27;45611;-74
2023/04/19 09:29:04;;;;;;;;;25.50;22.25;;;;;15.90;53.77;101634.31;5116302;27;46222;-74
2023/04/19 09:31:32;;;;;;;;;19.75;18.25;;;;;15.92;53.71;101618.84;5115891;27;45346;-72
2023/04/19 09:34:15;;;;;;;;;20.75;20.75;;;;;15.99;53.69;101620.25;5116283;27;45257;-74
2023/04/19 09:36:41;;;;;;;;;21.00;19.50;;;;;16.04;53.60;101617.31;5116187;27;45362;-74
2023/04/19 09:39:07;;;;;;;;;20.50;18.75;;;;;15.98;53.62;101606.84;5116280;27;45380;-75
2023/04/19 09:41:32;;;;;;;;;18.75;18.75;;;;;16.15;53.19;101621.22;5115757;27;45245;-75
2023/04/19 09:44:14;;;;;;;;;20.00;19.75;;;;;16.11;53.26;101597.09;5116177;27;45353;-72
2023/04/19 09:46:41;;;;;;;;;18.75;18.75;;;;;16.26;53.42;101612.47;5098311;27;45563;-74
2023/04/19 09:49:12;;;;;;;;;20.75;20.75;;;;;16.31;53.02;101613.09;5083384;27;47635;-75
2023/04/19 09:51:40;;;;;;;;;23.00;20.75;;;;;16.32;52.92;101612.16;5115974;27;45463;-74
2023/04/19 09:54:07;;;;;;;;;19.50;19.50;;;;;16.30;52.55;101594.25;5099944;27;45698;-75
2023/04/19 09:56:32;;;;;;;;;18.75;17.00;;;;;16.42;53.20;101602.53;5095190;27;45300;-75
2023/04/19 09:58:57;;;;;;;;;20.75;20.25;;;;;16.40;52.85;101596.34;5094908;27;46160;-73
2023/04/19 10:01:25;;;;;;;;;21.75;18.00;;;;;16.51;52.62;101606.53;5095286;27;45314;-74
2023/04/19 10:03:51;;;;;;;;;23.75;19.25;;;;;16.58;52.46;101602.56;5095259;27;45327;-74
2023/04/19 10:06:18;;;;;;;;;15.50;15.00;;;;;16.65;52.32;101595.84;5085865;27;45990;-73
2023/04/19 10:08:44;;;;;;;;;23.50;21.50;;;;;16.72;52.50;101599.94;5099552;27;45409;-74
2023/04/19 10:11:11;;;;;;;;;22.25;21.75;;;;;16.76;51.58;101595.25;5094842;27;45418;-73
2023/04/19 10:13:37;;;;;;;;;17.75;17.75;;;;;16.80;51.62;101591.38;5094094;27;45477;-75
2023/04/19 10:16:03;;;;;;;;;19.25;19.25;;;;;16.82;51.74;101589.47;5102027;27;45377;-74
2023/04/19 10:18:29;;;;;;;;;19.00;17.25;;;;;16.83;51.52;101580.38;5115264;27;45251;-74
2023/04/19 10:21:02;;;;;;;;;19.25;18.00;;;;;16.90;51.36;101587.19;5115571;27;45302;-73
2023/04/19 10:23:29;;;;;;;;;20.25;19.50;;;;;16.91;51.29;101569.97;5115562;27;45251;-74
2023/04/19 10:25:56;;;;;;;;;21.25;18.50;;;;;16.96;50.96;101578.69;5115745;27;45496;-74
2023/04/19 10:28:22;;;;;;;;;20.00;19.75;;;;;17.05;51.05;101572.72;5115346;27;45602;-73
2023/04/19 10:31:01;;;;;;;;;18.50;16.25;;;;;17.10;51.38;101570.59;5115348;27;45480;-74
2023/04/19 10:33:29;;;;;;;;;25.25;20.50;;;;;17.17;51.09;101573.84;5115457;27;45500;-74
2023/04/19 10:36:00;;;;;;;;;19.50;19.00;;;;;17.10;51.10;101559.75;5115365;27;46352;-74
2023/04/19 10:38:45;;;;;;;;;20.75;18.75;;;;;17.24;51.18;101576.06;5115693;27;45401;-74
2023/04/19 10:41:13;;;;;;;;;22.00;20.00;;;;;17.30;51.03;101561.28;5115038;27;45223;-75
2023/04/19 10:43:39;;;;;;;;;23.75;19.50;;;;;17.39;50.90;101563.41;5115477;27;45574;-74
2023/04/19 10:46:05;;;;;;;;;26.75;21.50;;;;;17.46;50.61;101561.19;5115159;27;45215;-74
2023/04/19 10:48:34;;;;;;;;;16.75;16.75;;;;;17.48;50.82;101552.00;5115423;27;46078;-73
2023/04/19 10:51:03;;;;;;;;;17.75;17.75;;;;;17.54;50.19;101562.47;5115119;27;45319;-74
2023/04/19 10:53:53;;;;;;;;;20.00;16.75;;;;;17.62;50.11;101568.31;5104543;27;45278;-75
2023/04/19 10:56:40;;;;;;;;;22.25;21.75;;;;;17.70;50.19;101555.16;5094500;27;45327;-73
2023/04/19 10:59:09;;;;;;;;;22.00;20.00;;;;;17.76;49.87;101554.78;5049228;27;46362;-75
2023/04/19 11:01:39;;;;;;;;;19.00;19.00;;;;;17.83;49.92;101557.97;5094907;27;45303;-75
2023/04/19 11:04:16;;;;;;;;;15.00;15.00;;;;;17.93;49.79;101548.28;5094309;27;45265;-74
2023/04/19 11:06:53;;;;;;;;;19.50;17.25;;;;;17.99;49.26;101556.03;5102340;27;45367;-74
2023/04/19 11:09:22;;;;;;;;;18.50;16.50;;;;;18.08;49.37;101538.28;5094558;27;45310;-75
2023/04/19 11:11:48;;;;;;;;;15.25;15.25;;;;;18.18;48.65;101539.44;5089509;27;45326;-75
2023/04/19 11:14:14;;;;;;;;;15.75;15.75;;;;;18.29;48.89;101539.59;5094719;27;45366;-75
2023/04/19 11:16:40;;;;;;;;;20.25;18.00;;;;;18.39;48.46;101538.03;5106355;27;45481;-75
2023/04/19 11:19:05;;;;;;;;;12.50;12.50;;;;;18.49;48.19;101533.72;5114921;27;46159;-73
2023/04/19 11:21:32;;;;;;;;;18.50;15.75;;;;;18.61;47.87;101531.22;5114776;27;45362;-74
2023/04/19 11:24:10;;;;;;;;;17.25;16.25;;;;;18.63;47.06;101516.53;5116345;27;45185;-73
2023/04/19 11:26:36;;;;;;;;;14.25;13.00;;;;;18.72;46.42;101518.63;5117905;27;45362;-74
2023/04/19 11:29:01;;;;;;;;;14.50;14.00;;;;;18.87;46.86;101519.47;5118163;27;45410;-73
2023/04/19 11:31:27;;;;;;;;;16.00;16.00;;;;;18.92;46.39;101509.13;5117990;27;45575;-74
2023/04/19 11:33:53;;;;;;;;;17.50;16.50;;;;;19.09;46.11;101513.41;5118432;27;45250;-74
2023/04/19 11:36:18;;;;;;;;;19.00;17.25;;;;;19.23;45.75;101519.63;5117918;27;45467;-74
2023/04/19 11:38:47;;;;;;;;;17.25;17.25;;;;;19.26;44.91;101500.41;5099717;27;46216;-74
2023/04/19 11:41:13;;;;;;;;;12.75;12.75;;;;;19.45;45.25;101505.41;5117651;27;45373;-74
2023/04/19 11:43:39;;;;;;;;;17.25;17.25;;;;;19.62;44.67;101493.34;5118025;27;45683;-74
2023/04/19 11:46:05;;;;;;;;;14.25;14.25;;;;;19.78;44.82;101493.13;5117745;27;45466;-75
2023/04/19 11:48:31;;;;;;;;;17.25;17.25;;;;;19.89;44.10;101504.97;5117880;27;46735;-74
2023/04/19 11:50:58;;;;;;;;;13.75;13.75;;;;;19.92;43.07;101499.28;5117623;27;45414;-74
2023/04/19 11:53:26;;;;;;;;;10.75;10.75;;;;;19.95;43.24;101493.63;5107661;27;45466;-75
2023/04/19 11:55:56;;;;;;;;;12.75;12.75;;;;;20.07;43.63;101485.56;5096645;27;45611;-77
2023/04/19 11:58:47;;;;;;;;;13.25;12.00;;;;;20.35;43.27;101491.56;5097076;27;45459;-74
2023/04/19 12:01:18;;;;;;;;;14.00;14.00;;;;;20.56;42.47;101485.50;5097166;27;45532;-72
2023/04/19 12:03:49;;;;;;;;;15.50;15.25;;;;;20.69;42.37;101473.53;5097010;27;45438;-71
2023/04/19 12:06:25;;;;;;;;;13.25;13.25;;;;;21.00;41.35;101484.81;5096953;27;45477;-72
2023/04/19 12:08:52;;;;;;;;;14.00;13.50;;;;;21.11;40.86;101491.16;5096842;27;47449;-74
2023/04/19 12:11:22;;;;;;;;;19.25;12.75;;;;;21.13;40.75;101461.91;5096753;27;45360;-74
2023/04/19 12:13:48;;;;;;;;;11.25;11.25;;;;;21.31;39.76;101450.56;5096680;27;45185;-75
2023/04/19 12:16:14;;;;;;;;;16.00;10.25;;;;;21.50;39.00;101453.56;5105347;27;45331;-75
2023/04/19 12:18:44;;;;;;;;;11.25;11.25;;;;;21.91;38.81;101469.31;5098559;27;48361;-75
2023/04/19 12:21:11;;;;;;;;;8.50;8.50;;;;;22.22;37.84;101474.00;5117212;27;45286;-74
2023/04/19 12:23:36;;;;;;;;;10.25;10.25;;;;;22.44;37.47;101459.44;5117243;27;45534;-76
2023/04/19 12:26:07;;;;;;;;;12.25;10.75;;;;;22.77;36.44;101468.53;5116995;27;45250;-75
2023/04/19 12:28:32;;;;;;;;;9.50;9.25;;;;;23.07;35.97;101467.75;5117006;27;46157;-74
2023/04/19 12:30:58;;;;;;;;;9.50;9.50;;;;;23.41;35.52;101463.78;5117216;27;45279;-74
2023/04/19 12:33:23;;;;;;;;;10.25;8.25;;;;;23.70;35.34;101473.06;5117490;27;45255;-73
2023/04/19 12:35:49;;;;;;;;;12.50;11.25;;;;;23.83;34.69;101445.41;5086093;27;47488;-74
2023/04/19 12:38:14;;;;;;;;;11.75;11.75;;;;;24.17;34.16;101456.03;5114911;27;46908;-75
2023/04/19 12:40:39;;;;;;;;;9.00;9.00;;;;;24.35;33.61;101447.03;5117083;27;45337;-76
2023/04/19 12:43:06;;;;;;;;;11.50;10.25;;;;;24.54;33.78;101459.03;5116844;27;45309;-75
2023/04/19 12:45:32;;;;;;;;;11.75;11.75;;;;;24.61;33.20;101454.69;5117116;27;46410;-74
2023/04/19 12:47:57;;;;;;;;;10.50;9.00;;;;;24.73;33.71;101440.72;5116582;27;46653;-74
2023/04/19 12:50:22;;;;;;;;;8.25;7.75;;;;;24.89;33.02;101451.97;5117095;27;45356;-74
2023/04/19 12:52:48;;;;;;;;;11.75;9.00;;;;;25.06;31.86;101444.91;5094532;27;45413;-76
2023/04/19 12:55:13;;;;;;;;;10.50;9.50;;;;;25.19;32.13;101445.44;5117054;27;45477;-74
2023/04/19 12:57:38;;;;;;;;;9.75;9.25;;;;;25.35;31.75;101442.06;5112438;27;46026;-75
2023/04/19 13:00:06;;;;;;;;;9.00;9.00;;;;;25.33;31.56;101441.38;5095905;27;45385;-74
2023/04/19 13:02:33;;;;;;;;;9.25;9.25;;;;;25.48;31.97;101439.00;5078270;27;45476;-75
2023/04/19 13:04:58;;;;;;;;;8.75;8.75;;;;;25.56;31.57;101418.03;5096206;27;45445;-75
2023/04/19 13:07:23;;;;;;;;;10.75;9.25;;;;;25.93;31.43;101429.00;5095582;27;51015;-74
2023/04/19 13:09:50;;;;;;;;;9.50;7.75;;;;;26.47;30.33;101413.47;5096143;27;45265;-76
2023/04/19 13:12:15;;;;;;;;;6.50;6.00;;;;;27.15;29.28;101416.47;5096003;27;45684;-75
2023/04/19 13:14:40;;;;;;;;;9.25;9.25;;;;;27.77;28.46;101422.72;5096662;27;45429;-74
2023/04/19 13:17:06;;;;;;;;;7.50;7.50;;;;;28.05;28.09;101426.13;5114615;27;45284;-78
2023/04/19 13:19:31;;;;;;;;;8.00;7.00;;;;;28.71;27.78;101419.72;5099341;27;45322;-75
2023/04/19 13:21:57;;;;;;;;;5.75;5.75;;;;;29.38;26.96;101401.06;5097970;27;45661;-75
2023/04/19 13:24:22;;;;;;;;;6.00;6.00;;;;;29.81;26.47;101417.16;5097997;27;46394;-75
2023/04/19 13:26:47;;;;;;;;;5.00;5.00;;;;;29.43;26.39;101416.09;5116027;27;45444;-76
2023/04/19 13:29:13;;;;;;;;;7.00;7.00;;;;;29.73;26.49;101404.22;5116502;27;45324;-76
2023/04/19 13:31:42;;;;;;;;;6.00;6.00;;;;;29.65;25.69;101401.50;5116102;27;45279;-75
2023/04/19 13:34:07;;;;;;;;;6.25;6.25;;;;;29.05;26.45;101395.59;5116391;27;45486;-74
2023/04/19 13:36:32;;;;;;;;;6.00;6.00;;;;;29.28;25.86;101399.31;5116068;27;45462;-74
2023/04/19 13:38:58;;;;;;;;;6.75;6.75;;;;;29.94;25.84;101411.94;5116371;27;45329;-75
2023/04/19 13:41:23;;;;;;;;;6.00;5.75;;;;;30.69;24.79;101403.03;5116015;27;45266;-74
2023/04/19 13:43:49;;;;;;;;;5.75;5.75;;;;;31.23;23.99;101386.25;5116138;27;45331;-75
2023/04/19 13:46:14;;;;;;;;;5.75;5.75;;;;;31.83;22.61;101403.59;5115935;27;45411;-75
2023/04/19 13:48:39;;;;;;;;;6.50;6.25;;;;;32.36;22.69;101392.31;5116296;27;45400;-76
2023/04/19 13:51:05;;;;;;;;;6.00;6.00;;;;;32.88;22.17;101378.97;5116117;27;45406;-76
2023/04/19 13:53:31;;;;;;;;;5.00;5.00;;;;;33.40;21.67;101386.88;5085245;27;45379;-75
2023/04/19 13:55:56;;;;;;;;;5.75;5.75;;;;;33.79;20.73;101366.78;5112992;27;45404;-76
2023/04/19 13:58:23;;;;;;;;;5.75;5.25;;;;;34.02;20.64;101369.25;5115845;27;45294;-75
2023/04/19 14:00:49;;;;;;;;;7.00;6.00;;;;;34.34;20.11;101370.44;5116027;27;45227;-76
2023/04/19 14:03:15;;;;;;;;;6.00;5.50;;;;;34.67;20.26;101373.25;5097440;27;45516;-76
2023/04/19 14:05:40;;;;;;;;;5.00;5.00;;;;;34.83;20.25;101370.09;5115766;27;45487;-75
2023/04/19 14:08:05;;;;;;;;;4.75;4.75;;;;;34.28;20.37;101365.72;5115729;27;45350;-75
2023/04/19 14:10:31;;;;;;;;;4.00;4.00;;;;;33.32;21.08;101370.34;5115842;27;45372;-75
2023/04/19 14:12:56;;;;;;;;;4.00;3.50;;;;;33.07;21.24;101371.88;5115644;27;45394;-74
2023/04/19 14:15:22;;;;;;;;;6.25;5.25;;;;;33.24;21.51;101370.53;5115496;27;45460;-75
2023/04/19 14:17:48;;;;;;;;;6.25;6.25;;;;;33.31;21.21;101354.75;5105634;27;45313;-76
2023/04/19 14:20:15;;;;;;;;;5.00;5.00;;;;;33.61;20.93;101366.44;5094889;27;45383;-75
2023/04/19 14:22:41;;;;;;;;;4.75;4.75;;;;;33.95;20.82;101353.56;5094963;27;45434;-76
2023/04/19 14:25:06;;;;;;;;;5.75;5.75;;;;;34.17;20.34;101353.22;5094819;27;46118;-77
2023/04/19 14:27:32;;;;;;;;;5.50;5.50;;;;;34.29;20.72;101349.84;5094917;27;45246;-75
2023/04/19 14:29:57;;;;;;;;;4.25;4.25;;;;;33.83;20.74;101342.22;5094969;27;45468;-75
2023/04/19 14:32:23;;;;;;;;;5.50;4.75;;;;;33.88;20.83;101355.47;5094572;27;45180;-75
2023/04/19 14:34:48;;;;;;;;;7.00;5.25;;;;;33.81;20.71;101355.47;5094807;27;45846;-75
2023/04/19 14:37:14;;;;;;;;;5.25;5.00;;;;;33.74;20.69;101363.78;5094960;27;45414;-75
2023/04/19 14:39:39;;;;;;;;;7.25;4.00;;;;;33.53;20.64;101341.59;5095005;27;45470;-75
2023/04/19 14:42:05;;;;;;;;;5.00;5.00;;;;;33.52;20.78;101353.78;5094671;27;45937;-76
2023/04/19 14:44:30;;;;;;;;;5.00;4.00;;;;;33.44;21.22;101359.50;5094679;27;46289;-75
2023/04/19 14:46:55;;;;;;;;;5.00;5.00;;;;;33.36;21.03;101349.41;5094944;27;45211;-75
2023/04/19 14:49:21;;;;;;;;;5.00;5.00;;;;;33.31;20.94;101351.09;5094832;27;45517;-76
2023/04/19 14:51:46;;;;;;;;;4.50;4.50;;;;;33.45;20.73;101344.53;5100579;27;45483;-75
2023/04/19 14:54:11;;;;;;;;;5.50;4.00;;;;;33.51;20.61;101343.75;5098812;27;46432;-75
2023/04/19 14:56:37;;;;;;;;;5.00;5.00;;;;;33.50;20.21;101332.81;5094551;27;45338;-75
2023/04/19 14:59:06;;;;;;;;;5.50;5.50;;;;;33.34;20.35;101329.31;5096086;27;45498;-75
2023/04/19 15:01:32;;;;;;;;;5.25;3.75;;;;;33.18;20.86;101340.72;5098475;27;45351;-78
2023/04/19 15:03:57;;;;;;;;;5.00;4.00;;;;;33.00;20.83;101341.25;5093387;27;48499;-75
2023/04/19 15:06:23;;;;;;;;;1.00;1.00;;;;;32.81;20.76;101341.97;5098566;27;45862;-76
2023/04/19 15:08:48;;;;;;;;;2.50;2.50;;;;;32.56;21.35;101319.28;5098119;27;45505;-76
2023/04/19 15:11:13;;;;;;;;;3.50;2.50;;;;;32.44;21.26;101331.13;5088627;27;46184;-75
2023/04/19 15:13:39;;;;;;;;;3.00;3.00;;;;;32.31;21.20;101317.97;5097772;27;45979;-74
2023/04/19 15:16:06;;;;;;;;;2.50;2.50;;;;;32.28;21.42;101335.00;5105405;27;45446;-74
2023/04/19 15:18:32;;;;;;;;;3.00;3.00;;;;;32.26;20.86;101337.13;5118681;27;45472;-76
2023/04/19 15:20:57;;;;;;;;;3.00;3.00;;;;;32.17;21.28;101333.63;5118413;27;45545;-75
2023/04/19 15:23:24;;;;;;;;;3.00;3.00;;;;;32.08;21.19;101318.13;5118085;27;46269;-73
2023/04/19 15:25:51;;;;;;;;;5.50;3.00;;;;;32.15;21.52;101316.28;5118415;27;45479;-75
2023/04/19 15:28:16;;;;;;;;;4.00;4.00;;;;;32.04;21.30;101313.19;5118309;27;45334;-76
2023/04/19 15:30:41;;;;;;;;;2.50;2.50;;;;;31.79;21.46;101316.31;5118400;27;45375;-72
2023/04/19 15:33:07;;;;;;;;;3.00;2.00;;;;;31.22;21.94;101320.84;5117978;27;45401;-74
2023/04/19 15:35:33;;;;;;;;;3.75;3.75;;;;;30.72;22.48;101322.34;5118501;27;45311;-72
2023/04/19 15:37:58;;;;;;;;;2.75;2.75;;;;;30.35;22.73;101314.88;5118307;27;45279;-73
2023/04/19 15:40:24;;;;;;;;;3.75;3.50;;;;;30.23;23.32;101317.22;5118294;27;45271;-73
2023/04/19 15:42:49;;;;;;;;;6.75;3.75;;;;;30.01;22.82;101310.63;5118030;27;45804;-72